sensor_id;sensor_type;location;lat;lon;timestamp;pressure;altitude;pressure_sealevel;temperature;humidity
40612;BME280;26317;44.894;20.286;2024-01-30T00:02:20;103116.38;;;3.02;88.95
40612;BME280;26317;44.894;20.286;2024-01-30T00:05:09;103114.38;;;2.96;88.65
40612;BME280;26317;44.894;20.286;2024-01-30T00:07:46;103091.25;;;2.81;88.16
40612;BME280;26317;44.894;20.286;2024-01-30T00:10:23;103135.25;;;2.99;88.22
40612;BME280;26317;44.894;20.286;2024-01-30T00:13:12;103136.72;;;2.94;88.63
40612;BME280;26317;44.894;20.286;2024-01-30T00:15:52;103128.38;;;2.89;88.09
40612;BME280;26317;44.894;20.286;2024-01-30T00:18:31;103131.50;;;2.84;87.65
40612;BME280;26317;44.894;20.286;2024-01-30T00:21:18;103129.50;;;2.78;87.22
40612;BME280;26317;44.894;20.286;2024-01-30T00:23:59;103126.63;;;2.71;86.97
40612;BME280;26317;44.894;20.286;2024-01-30T00:26:36;103121.63;;;2.68;86.94
40612;BME280;26317;44.894;20.286;2024-01-30T00:29:10;103122.56;;;2.59;86.87
40612;BME280;26317;44.894;20.286;2024-01-30T00:31:57;103127.34;;;2.56;88.06
40612;BME280;26317;44.894;20.286;2024-01-30T00:34:37;103123.03;;;2.55;88.46
40612;BME280;26317;44.894;20.286;2024-01-30T00:37:15;103135.16;;;2.57;89.06
40612;BME280;26317;44.894;20.286;2024-01-30T00:39:51;103113.72;;;2.51;89.38
40612;BME280;26317;44.894;20.286;2024-01-30T00:42:27;103132.34;;;2.59;89.88
40612;BME280;26317;44.894;20.286;2024-01-30T00:45:01;103117.06;;;2.53;89.85
40612;BME280;26317;44.894;20.286;2024-01-30T00:47:40;103107.91;;;2.47;90.08
40612;BME280;26317;44.894;20.286;2024-01-30T00:50:17;103106.47;;;2.53;90.24
40612;BME280;26317;44.894;20.286;2024-01-30T00:53:00;103120.75;;;2.60;90.77
40612;BME280;26317;44.894;20.286;2024-01-30T00:55:42;103116.75;;;2.56;91.16
40612;BME280;26317;44.894;20.286;2024-01-30T00:58:20;103128.50;;;2.53;91.73
40612;BME280;26317;44.894;20.286;2024-01-30T01:00:59;103122.69;;;2.50;91.59
40612;BME280;26317;44.894;20.286;2024-01-30T01:03:36;103131.28;;;2.52;91.54
40612;BME280;26317;44.894;20.286;2024-01-30T01:06:16;103129.63;;;2.51;91.30
40612;BME280;26317;44.894;20.286;2024-01-30T01:08:59;103128.81;;;2.50;91.38
40612;BME280;26317;44.894;20.286;2024-01-30T01:11:32;103127.81;;;2.51;90.96
40612;BME280;26317;44.894;20.286;2024-01-30T01:14:05;103119.19;;;2.49;90.24
40612;BME280;26317;44.894;20.286;2024-01-30T01:16:47;103118.50;;;2.47;89.82
40612;BME280;26317;44.894;20.286;2024-01-30T01:19:24;103125.47;;;2.48;89.63
40612;BME280;26317;44.894;20.286;2024-01-30T01:21:59;103099.53;;;2.34;89.57
40612;BME280;26317;44.894;20.286;2024-01-30T01:24:43;103101.66;;;2.30;88.78
40612;BME280;26317;44.894;20.286;2024-01-30T01:27:19;103128.06;;;2.40;87.79
40612;BME280;26317;44.894;20.286;2024-01-30T01:30:02;103127.66;;;2.35;87.74
40612;BME280;26317;44.894;20.286;2024-01-30T01:32:37;103119.22;;;2.31;87.93
40612;BME280;26317;44.894;20.286;2024-01-30T01:35:24;103122.56;;;2.34;88.39
40612;BME280;26317;44.894;20.286;2024-01-30T01:38:01;103112.09;;;2.32;89.21
40612;BME280;26317;44.894;20.286;2024-01-30T01:40:39;103117.41;;;2.32;90.03
40612;BME280;26317;44.894;20.286;2024-01-30T01:43:22;103120.03;;;2.32;90.68
40612;BME280;26317;44.894;20.286;2024-01-30T01:45:56;103119.91;;;2.34;91.02
40612;BME280;26317;44.894;20.286;2024-01-30T01:48:36;103115.41;;;2.34;91.24
40612;BME280;26317;44.894;20.286;2024-01-30T01:51:17;103103.47;;;2.30;90.93
40612;BME280;26317;44.894;20.286;2024-01-30T01:53:59;103108.09;;;2.28;90.74
40612;BME280;26317;44.894;20.286;2024-01-30T01:56:42;103111.13;;;2.33;90.91
40612;BME280;26317;44.894;20.286;2024-01-30T01:59:30;103112.75;;;2.34;90.84
40612;BME280;26317;44.894;20.286;2024-01-30T02:02:11;103107.47;;;2.34;91.28
40612;BME280;26317;44.894;20.286;2024-01-30T02:07:33;103113.06;;;2.31;92.10
40612;BME280;26317;44.894;20.286;2024-01-30T02:10:19;103117.25;;;2.34;92.14
40612;BME280;26317;44.894;20.286;2024-01-30T02:12:57;103118.06;;;2.34;92.25
40612;BME280;26317;44.894;20.286;2024-01-30T02:15:29;103092.59;;;2.15;92.07
40612;BME280;26317;44.894;20.286;2024-01-30T02:18:11;103118.38;;;2.31;92.23
40612;BME280;26317;44.894;20.286;2024-01-30T02:20:47;103112.56;;;2.27;92.40
40612;BME280;26317;44.894;20.286;2024-01-30T02:23:31;103129.94;;;2.30;92.25
40612;BME280;26317;44.894;20.286;2024-01-30T02:26:25;103129.59;;;2.25;92.48
40612;BME280;26317;44.894;20.286;2024-01-30T02:28:59;103121.78;;;2.23;92.51
40612;BME280;26317;44.894;20.286;2024-01-30T02:31:44;103115.44;;;2.16;92.83
40612;BME280;26317;44.894;20.286;2024-01-30T02:34:21;103112.94;;;2.15;92.55
40612;BME280;26317;44.894;20.286;2024-01-30T02:37:10;103098.66;;;2.08;93.28
40612;BME280;26317;44.894;20.286;2024-01-30T02:39:46;103117.25;;;2.16;92.97
40612;BME280;26317;44.894;20.286;2024-01-30T02:42:39;103120.88;;;2.15;93.23
40612;BME280;26317;44.894;20.286;2024-01-30T02:45:17;103127.47;;;2.11;93.17
40612;BME280;26317;44.894;20.286;2024-01-30T02:47:51;103118.69;;;2.10;93.36
40612;BME280;26317;44.894;20.286;2024-01-30T02:50:33;103091.94;;;1.96;93.37
40612;BME280;26317;44.894;20.286;2024-01-30T02:53:13;103096.91;;;1.99;93.13
40612;BME280;26317;44.894;20.286;2024-01-30T02:56:02;103102.59;;;2.04;93.12
40612;BME280;26317;44.894;20.286;2024-01-30T03:01:28;103075.28;;;1.85;92.85
40612;BME280;26317;44.894;20.286;2024-01-30T03:04:04;103098.59;;;2.00;93.09
40612;BME280;26317;44.894;20.286;2024-01-30T03:06:52;103121.19;;;2.12;93.09
40612;BME280;26317;44.894;20.286;2024-01-30T03:09:27;103118.69;;;2.10;93.09
40612;BME280;26317;44.894;20.286;2024-01-30T03:12:05;103117.84;;;2.10;92.71
40612;BME280;26317;44.894;20.286;2024-01-30T03:14:43;103074.44;;;1.85;92.61
40612;BME280;26317;44.894;20.286;2024-01-30T03:17:30;103116.03;;;2.10;92.19
40612;BME280;26317;44.894;20.286;2024-01-30T03:20:13;103123.75;;;2.04;90.56
40612;BME280;26317;44.894;20.286;2024-01-30T03:22:50;103126.91;;;1.90;86.64
40612;BME280;26317;44.894;20.286;2024-01-30T03:25:21;103127.41;;;1.75;84.63
40612;BME280;26317;44.894;20.286;2024-01-30T03:27:59;103135.19;;;1.59;83.15
40612;BME280;26317;44.894;20.286;2024-01-30T03:30:33;103133.88;;;1.46;83.45
40612;BME280;26317;44.894;20.286;2024-01-30T03:33:12;103138.97;;;1.29;83.64
40612;BME280;26317;44.894;20.286;2024-01-30T03:35:46;103139.66;;;1.22;83.80
40612;BME280;26317;44.894;20.286;2024-01-30T03:38:25;103112.34;;;1.04;84.60
40612;BME280;26317;44.894;20.286;2024-01-30T03:41:01;103138.88;;;1.12;85.57
40612;BME280;26317;44.894;20.286;2024-01-30T03:43:38;103118.91;;;1.00;85.62
40612;BME280;26317;44.894;20.286;2024-01-30T03:46:18;103112.81;;;0.89;86.16
40612;BME280;26317;44.894;20.286;2024-01-30T03:48:57;103115.88;;;0.85;86.86
40612;BME280;26317;44.894;20.286;2024-01-30T03:51:38;103134.19;;;0.96;87.36
40612;BME280;26317;44.894;20.286;2024-01-30T03:54:28;103129.47;;;1.00;87.67
40612;BME280;26317;44.894;20.286;2024-01-30T03:57:11;103132.38;;;0.97;87.65
40612;BME280;26317;44.894;20.286;2024-01-30T03:59:58;103127.94;;;0.97;87.95
40612;BME280;26317;44.894;20.286;2024-01-30T04:02:40;103117.53;;;0.96;88.29
40612;BME280;26317;44.894;20.286;2024-01-30T04:05:15;103122.94;;;1.04;88.65
40612;BME280;26317;44.894;20.286;2024-01-30T04:07:49;103126.94;;;1.08;88.81
40612;BME280;26317;44.894;20.286;2024-01-30T04:10:25;103130.13;;;1.11;89.23
40612;BME280;26317;44.894;20.286;2024-01-30T04:13:04;103120.22;;;1.13;89.27
40612;BME280;26317;44.894;20.286;2024-01-30T04:15:43;103124.25;;;1.17;90.36
40612;BME280;26317;44.894;20.286;2024-01-30T04:18:19;103124.09;;;1.19;90.60
40612;BME280;26317;44.894;20.286;2024-01-30T04:21:03;103124.66;;;1.22;90.40
40612;BME280;26317;44.894;20.286;2024-01-30T04:23:40;103127.69;;;1.27;90.66
40612;BME280;26317;44.894;20.286;2024-01-30T04:26:17;103119.31;;;1.32;90.72
40612;BME280;26317;44.894;20.286;2024-01-30T04:29:02;103121.00;;;1.33;90.94
40612;BME280;26317;44.894;20.286;2024-01-30T04:31:47;103126.81;;;1.36;90.93
40612;BME280;26317;44.894;20.286;2024-01-30T04:34:31;103129.31;;;1.38;91.12
40612;BME280;26317;44.894;20.286;2024-01-30T04:37:07;103130.13;;;1.38;91.27
40612;BME280;26317;44.894;20.286;2024-01-30T04:39:49;103093.09;;;1.21;91.16
40612;BME280;26317;44.894;20.286;2024-01-30T04:42:23;103129.56;;;1.45;91.42
40612;BME280;26317;44.894;20.286;2024-01-30T04:45:02;103137.06;;;1.49;91.43
40612;BME280;26317;44.894;20.286;2024-01-30T04:47:50;103142.88;;;1.53;91.50
40612;BME280;26317;44.894;20.286;2024-01-30T04:50:26;103132.00;;;1.56;91.43
40612;BME280;26317;44.894;20.286;2024-01-30T04:53:05;103140.63;;;1.58;91.08
40612;BME280;26317;44.894;20.286;2024-01-30T04:55:44;103134.19;;;1.60;90.84
40612;BME280;26317;44.894;20.286;2024-01-30T04:58:21;103130.19;;;1.56;90.58
40612;BME280;26317;44.894;20.286;2024-01-30T05:01:07;103139.19;;;1.63;90.44
40612;BME280;26317;44.894;20.286;2024-01-30T05:03:42;103143.50;;;1.64;90.13
40612;BME280;26317;44.894;20.286;2024-01-30T05:06:26;103135.88;;;1.61;89.95
40612;BME280;26317;44.894;20.286;2024-01-30T05:09:18;103123.75;;;1.59;89.74
40612;BME280;26317;44.894;20.286;2024-01-30T05:11:54;103137.25;;;1.65;89.90
40612;BME280;26317;44.894;20.286;2024-01-30T05:14:46;103132.78;;;1.66;90.02
40612;BME280;26317;44.894;20.286;2024-01-30T05:17:20;103097.97;;;1.43;90.11
40612;BME280;26317;44.894;20.286;2024-01-30T05:20:01;103119.09;;;1.53;90.38
40612;BME280;26317;44.894;20.286;2024-01-30T05:22:39;103140.19;;;1.62;90.45
40612;BME280;26317;44.894;20.286;2024-01-30T05:25:20;103143.94;;;1.60;90.89
40612;BME280;26317;44.894;20.286;2024-01-30T05:27:57;103149.09;;;1.61;91.26
40612;BME280;26317;44.894;20.286;2024-01-30T05:30:33;103146.47;;;1.61;91.42
40612;BME280;26317;44.894;20.286;2024-01-30T05:33:13;103148.41;;;1.59;91.69
40612;BME280;26317;44.894;20.286;2024-01-30T05:35:52;103133.72;;;1.47;91.86
40612;BME280;26317;44.894;20.286;2024-01-30T05:38:26;103151.22;;;1.58;91.77
40612;BME280;26317;44.894;20.286;2024-01-30T05:41:06;103153.69;;;1.59;91.38
40612;BME280;26317;44.894;20.286;2024-01-30T05:43:49;103154.53;;;1.60;91.45
40612;BME280;26317;44.894;20.286;2024-01-30T05:46:28;103158.84;;;1.61;91.62
40612;BME280;26317;44.894;20.286;2024-01-30T05:49:04;103150.78;;;1.62;91.41
40612;BME280;26317;44.894;20.286;2024-01-30T05:51:41;103160.34;;;1.63;91.01
40612;BME280;26317;44.894;20.286;2024-01-30T05:54:18;103158.53;;;1.64;90.68
40612;BME280;26317;44.894;20.286;2024-01-30T05:56:50;103158.97;;;1.59;90.18
40612;BME280;26317;44.894;20.286;2024-01-30T05:59:25;103164.28;;;1.59;90.46
40612;BME280;26317;44.894;20.286;2024-01-30T06:02:01;103147.25;;;1.44;90.53
40612;BME280;26317;44.894;20.286;2024-01-30T06:04:40;103161.25;;;1.54;90.67
40612;BME280;26317;44.894;20.286;2024-01-30T06:07:29;103164.88;;;1.53;91.14
40612;BME280;26317;44.894;20.286;2024-01-30T06:10:14;103161.97;;;1.47;90.95
40612;BME280;26317;44.894;20.286;2024-01-30T06:12:52;103168.34;;;1.54;91.46
40612;BME280;26317;44.894;20.286;2024-01-30T06:15:29;103167.66;;;1.52;91.58
40612;BME280;26317;44.894;20.286;2024-01-30T06:18:05;103171.44;;;1.49;92.38
40612;BME280;26317;44.894;20.286;2024-01-30T06:20:51;103153.50;;;1.43;93.00
40612;BME280;26317;44.894;20.286;2024-01-30T06:23:31;103150.19;;;1.41;93.17
40612;BME280;26317;44.894;20.286;2024-01-30T06:26:06;103164.06;;;1.43;93.42
40612;BME280;26317;44.894;20.286;2024-01-30T06:28:48;103182.94;;;1.58;93.73
40612;BME280;26317;44.894;20.286;2024-01-30T06:31:32;103181.94;;;1.59;93.73
40612;BME280;26317;44.894;20.286;2024-01-30T06:34:06;103182.66;;;1.61;94.50
40612;BME280;26317;44.894;20.286;2024-01-30T06:36:41;103189.44;;;1.63;94.23
40612;BME280;26317;44.894;20.286;2024-01-30T06:39:18;103183.19;;;1.64;94.49
40612;BME280;26317;44.894;20.286;2024-01-30T06:41:53;103165.41;;;1.57;94.36
40612;BME280;26317;44.894;20.286;2024-01-30T06:44:25;103192.50;;;1.68;94.62
40612;BME280;26317;44.894;20.286;2024-01-30T06:47:04;103188.56;;;1.72;94.55
40612;BME280;26317;44.894;20.286;2024-01-30T06:49:50;103174.28;;;1.65;94.67
40612;BME280;26317;44.894;20.286;2024-01-30T06:52:28;103184.25;;;1.71;94.54
40612;BME280;26317;44.894;20.286;2024-01-30T06:55:23;103195.31;;;1.84;94.83
40612;BME280;26317;44.894;20.286;2024-01-30T06:58:00;103191.56;;;1.87;94.87
40612;BME280;26317;44.894;20.286;2024-01-30T07:00:39;103193.06;;;1.90;95.13
40612;BME280;26317;44.894;20.286;2024-01-30T07:03:34;103178.16;;;1.89;95.80
40612;BME280;26317;44.894;20.286;2024-01-30T07:06:11;103193.84;;;2.00;95.71
40612;BME280;26317;44.894;20.286;2024-01-30T07:08:46;103189.94;;;2.04;95.81
40612;BME280;26317;44.894;20.286;2024-01-30T07:11:37;103182.75;;;1.96;96.01
40612;BME280;26317;44.894;20.286;2024-01-30T07:14:21;103190.84;;;2.12;96.33
40612;BME280;26317;44.894;20.286;2024-01-30T07:17:06;103192.56;;;2.21;96.17
40612;BME280;26317;44.894;20.286;2024-01-30T07:19:45;103202.06;;;2.24;96.21
40612;BME280;26317;44.894;20.286;2024-01-30T07:22:21;103196.44;;;2.27;95.85
40612;BME280;26317;44.894;20.286;2024-01-30T07:25:04;103196.00;;;2.31;96.29
40612;BME280;26317;44.894;20.286;2024-01-30T07:27:46;103199.88;;;2.37;96.29
40612;BME280;26317;44.894;20.286;2024-01-30T07:30:28;103191.31;;;2.43;95.47
40612;BME280;26317;44.894;20.286;2024-01-30T07:33:07;103180.94;;;2.50;95.63
40612;BME280;26317;44.894;20.286;2024-01-30T07:35:47;103167.47;;;2.43;95.68
40612;BME280;26317;44.894;20.286;2024-01-30T07:38:31;103197.13;;;2.64;95.50
40612;BME280;26317;44.894;20.286;2024-01-30T07:41:07;103164.88;;;2.51;95.12
40612;BME280;26317;44.894;20.286;2024-01-30T07:43:59;103185.22;;;2.68;94.40
40612;BME280;26317;44.894;20.286;2024-01-30T07:46:47;103193.25;;;2.76;94.27
40612;BME280;26317;44.894;20.286;2024-01-30T07:49:21;103175.31;;;2.70;94.26
40612;BME280;26317;44.894;20.286;2024-01-30T07:51:58;103196.31;;;2.90;94.08
40612;BME280;26317;44.894;20.286;2024-01-30T07:54:45;103191.84;;;2.90;93.25
40612;BME280;26317;44.894;20.286;2024-01-30T07:57:33;103175.44;;;2.87;92.94
40612;BME280;26317;44.894;20.286;2024-01-30T08:00:10;103202.72;;;3.05;92.61
40612;BME280;26317;44.894;20.286;2024-01-30T08:03:15;103187.59;;;2.97;92.50
40612;BME280;26317;44.894;20.286;2024-01-30T08:06:14;103192.34;;;3.11;91.51
40612;BME280;26317;44.894;20.286;2024-01-30T08:09:02;103193.53;;;3.17;91.75
40612;BME280;26317;44.894;20.286;2024-01-30T08:12:00;103178.94;;;3.13;92.24
40612;BME280;26317;44.894;20.286;2024-01-30T08:14:36;103194.09;;;3.29;91.92
40612;BME280;26317;44.894;20.286;2024-01-30T08:17:16;103180.66;;;3.30;91.83
40612;BME280;26317;44.894;20.286;2024-01-30T08:19:54;103189.50;;;3.39;92.21
40612;BME280;26317;44.894;20.286;2024-01-30T08:22:34;103185.53;;;3.43;92.75
40612;BME280;26317;44.894;20.286;2024-01-30T08:25:17;103200.03;;;3.56;93.04
40612;BME280;26317;44.894;20.286;2024-01-30T08:28:11;103159.19;;;3.41;93.01
40612;BME280;26317;44.894;20.286;2024-01-30T08:30:51;103197.94;;;3.76;93.21
40612;BME280;26317;44.894;20.286;2024-01-30T08:33:27;103201.28;;;3.78;92.90
40612;BME280;26317;44.894;20.286;2024-01-30T08:36:02;103199.34;;;3.88;92.74
40612;BME280;26317;44.894;20.286;2024-01-30T08:38:36;103193.53;;;3.93;92.91
40612;BME280;26317;44.894;20.286;2024-01-30T08:41:21;103201.22;;;4.12;92.53
40612;BME280;26317;44.894;20.286;2024-01-30T08:44:09;103204.75;;;4.21;92.40
40612;BME280;26317;44.894;20.286;2024-01-30T08:46:52;103201.91;;;4.30;92.63
40612;BME280;26317;44.894;20.286;2024-01-30T08:50:16;103206.59;;;4.36;90.59
40612;BME280;26317;44.894;20.286;2024-01-30T08:53:14;103209.25;;;4.44;87.41
40612;BME280;26317;44.894;20.286;2024-01-30T08:55:51;103206.09;;;4.49;83.51
40612;BME280;26317;44.894;20.286;2024-01-30T08:58:41;103214.22;;;4.63;81.62
40612;BME280;26317;44.894;20.286;2024-01-30T09:01:41;103219.06;;;4.76;80.76
40612;BME280;26317;44.894;20.286;2024-01-30T09:04:41;103195.47;;;4.73;77.56
40612;BME280;26317;44.894;20.286;2024-01-30T09:07:18;103226.22;;;4.92;76.36
40612;BME280;26317;44.894;20.286;2024-01-30T09:09:55;103211.25;;;4.83;74.55
40612;BME280;26317;44.894;20.286;2024-01-30T09:12:34;103221.41;;;4.95;75.03
40612;BME280;26317;44.894;20.286;2024-01-30T09:15:13;103221.38;;;5.03;74.57
40612;BME280;26317;44.894;20.286;2024-01-30T09:18:00;103204.44;;;5.04;73.71
40612;BME280;26317;44.894;20.286;2024-01-30T09:20:40;103217.38;;;5.16;72.65
40612;BME280;26317;44.894;20.286;2024-01-30T09:23:19;103210.22;;;5.16;72.74
40612;BME280;26317;44.894;20.286;2024-01-30T09:25:55;103214.69;;;5.32;72.48
40612;BME280;26317;44.894;20.286;2024-01-30T09:28:40;103209.84;;;5.35;72.58
40612;BME280;26317;44.894;20.286;2024-01-30T09:31:16;103187.44;;;5.22;71.25
40612;BME280;26317;44.894;20.286;2024-01-30T09:33:57;103213.47;;;5.50;70.73
40612;BME280;26317;44.894;20.286;2024-01-30T09:36:45;103209.28;;;5.56;70.63
40612;BME280;26317;44.894;20.286;2024-01-30T09:39:23;103208.72;;;5.69;71.22
40612;BME280;26317;44.894;20.286;2024-01-30T09:42:03;103207.38;;;5.73;70.17
40612;BME280;26317;44.894;20.286;2024-01-30T09:44:46;103210.69;;;5.83;68.80
40612;BME280;26317;44.894;20.286;2024-01-30T09:47:20;103205.19;;;5.84;69.15
40612;BME280;26317;44.894;20.286;2024-01-30T09:49:56;103203.53;;;5.83;68.80
40612;BME280;26317;44.894;20.286;2024-01-30T09:52:46;103196.03;;;5.87;67.93
40612;BME280;26317;44.894;20.286;2024-01-30T09:55:23;103203.31;;;5.93;68.49
40612;BME280;26317;44.894;20.286;2024-01-30T09:58:07;103197.31;;;5.99;68.19
40612;BME280;26317;44.894;20.286;2024-01-30T10:00:44;103196.94;;;6.02;68.15
40612;BME280;26317;44.894;20.286;2024-01-30T10:03:33;103196.31;;;6.00;65.99
40612;BME280;26317;44.894;20.286;2024-01-30T10:06:13;103191.09;;;6.07;65.22
40612;BME280;26317;44.894;20.286;2024-01-30T10:09:03;103175.47;;;6.04;65.35
40612;BME280;26317;44.894;20.286;2024-01-30T10:11:41;103185.91;;;6.13;64.19
40612;BME280;26317;44.894;20.286;2024-01-30T10:14:15;103173.94;;;6.09;64.98
40612;BME280;26317;44.894;20.286;2024-01-30T10:16:54;103182.88;;;6.16;64.01
40612;BME280;26317;44.894;20.286;2024-01-30T10:19:34;103160.63;;;6.09;63.20
40612;BME280;26317;44.894;20.286;2024-01-30T10:22:14;103179.81;;;6.27;63.75
40612;BME280;26317;44.894;20.286;2024-01-30T10:24:52;103185.44;;;6.32;63.85
40612;BME280;26317;44.894;20.286;2024-01-30T10:27:35;103186.09;;;6.34;62.77
40612;BME280;26317;44.894;20.286;2024-01-30T10:30:24;103180.03;;;6.40;62.01
40612;BME280;26317;44.894;20.286;2024-01-30T10:33:04;103171.59;;;6.37;61.64
40612;BME280;26317;44.894;20.286;2024-01-30T10:35:39;103175.00;;;6.45;62.42
40612;BME280;26317;44.894;20.286;2024-01-30T10:38:18;103159.59;;;6.56;62.38
40612;BME280;26317;44.894;20.286;2024-01-30T10:41:07;103150.22;;;6.60;61.86
40612;BME280;26317;44.894;20.286;2024-01-30T10:43:58;103148.69;;;6.65;61.58
40612;BME280;26317;44.894;20.286;2024-01-30T10:46:47;103146.47;;;6.69;61.57
40612;BME280;26317;44.894;20.286;2024-01-30T10:49:26;103149.72;;;6.79;58.41
40612;BME280;26317;44.894;20.286;2024-01-30T10:52:02;103154.31;;;6.85;59.55
40612;BME280;26317;44.894;20.286;2024-01-30T10:54:47;103149.41;;;6.97;58.97
40612;BME280;26317;44.894;20.286;2024-01-30T10:57:29;103142.84;;;6.99;58.32
40612;BME280;26317;44.894;20.286;2024-01-30T11:00:13;103145.34;;;7.01;57.45
40612;BME280;26317;44.894;20.286;2024-01-30T11:02:58;103132.25;;;7.06;58.26
40612;BME280;26317;44.894;20.286;2024-01-30T11:05:33;103138.53;;;7.13;57.22
40612;BME280;26317;44.894;20.286;2024-01-30T11:08:14;103118.22;;;6.97;54.59
40612;BME280;26317;44.894;20.286;2024-01-30T11:10:58;103128.31;;;7.16;53.46
40612;BME280;26317;44.894;20.286;2024-01-30T11:13:41;103127.66;;;7.14;54.48
40612;BME280;26317;44.894;20.286;2024-01-30T11:16:30;103122.59;;;7.19;54.14
40612;BME280;26317;44.894;20.286;2024-01-30T11:19:04;103117.09;;;7.21;54.44
40612;BME280;26317;44.894;20.286;2024-01-30T11:21:53;103119.38;;;7.24;54.60
40612;BME280;26317;44.894;20.286;2024-01-30T11:24:36;103116.16;;;7.28;52.93
40612;BME280;26317;44.894;20.286;2024-01-30T11:27:20;103106.94;;;7.31;52.89
40612;BME280;26317;44.894;20.286;2024-01-30T11:30:05;103102.63;;;7.30;52.89
40612;BME280;26317;44.894;20.286;2024-01-30T11:32:41;103106.78;;;7.32;53.07
40612;BME280;26317;44.894;20.286;2024-01-30T11:35:34;103106.75;;;7.47;50.94
40612;BME280;26317;44.894;20.286;2024-01-30T11:38:17;103094.69;;;7.51;49.58
40612;BME280;26317;44.894;20.286;2024-01-30T11:40:54;103089.81;;;7.55;48.74
40612;BME280;26317;44.894;20.286;2024-01-30T11:43:27;103092.09;;;7.58;48.80
40612;BME280;26317;44.894;20.286;2024-01-30T11:46:12;103085.63;;;7.67;50.31
40612;BME280;26317;44.894;20.286;2024-01-30T11:51:40;103086.84;;;7.85;50.31
40612;BME280;26317;44.894;20.286;2024-01-30T11:54:21;103079.53;;;7.94;50.66
40612;BME280;26317;44.894;20.286;2024-01-30T11:57:05;103076.72;;;8.02;50.04
40612;BME280;26317;44.894;20.286;2024-01-30T11:59:40;103068.56;;;8.10;49.74
40612;BME280;26317;44.894;20.286;2024-01-30T12:02:23;103057.88;;;8.10;49.50
40612;BME280;26317;44.894;20.286;2024-01-30T12:05:11;103037.28;;;8.04;49.20
40612;BME280;26317;44.894;20.286;2024-01-30T12:07:49;103044.78;;;8.15;49.41
40612;BME280;26317;44.894;20.286;2024-01-30T12:10:24;103049.59;;;8.26;48.84
40612;BME280;26317;44.894;20.286;2024-01-30T12:13:14;103054.63;;;8.36;48.05
40612;BME280;26317;44.894;20.286;2024-01-30T12:15:55;103046.72;;;8.28;48.06
40612;BME280;26317;44.894;20.286;2024-01-30T12:18:42;103047.00;;;8.33;47.29
40612;BME280;26317;44.894;20.286;2024-01-30T12:21:24;103046.88;;;8.41;47.16
40612;BME280;26317;44.894;20.286;2024-01-30T12:24:03;103046.91;;;8.48;47.99
40612;BME280;26317;44.894;20.286;2024-01-30T12:26:44;103042.19;;;8.50;47.36
40612;BME280;26317;44.894;20.286;2024-01-30T12:29:19;103038.06;;;8.47;46.98
40612;BME280;26317;44.894;20.286;2024-01-30T12:32:03;103037.53;;;8.58;45.09
40612;BME280;26317;44.894;20.286;2024-01-30T12:34:46;103041.03;;;8.59;45.61
40612;BME280;26317;44.894;20.286;2024-01-30T12:37:31;103036.53;;;8.66;45.67
40612;BME280;26317;44.894;20.286;2024-01-30T12:40:08;103033.25;;;8.64;45.84
40612;BME280;26317;44.894;20.286;2024-01-30T12:42:57;102984.78;;;8.46;47.13
40612;BME280;26317;44.894;20.286;2024-01-30T12:45:32;103026.66;;;8.66;47.30
40612;BME280;26317;44.894;20.286;2024-01-30T12:48:10;103020.47;;;8.66;46.49
40612;BME280;26317;44.894;20.286;2024-01-30T12:50:46;103019.06;;;8.70;46.41
40612;BME280;26317;44.894;20.286;2024-01-30T12:53:25;102997.41;;;8.58;47.04
40612;BME280;26317;44.894;20.286;2024-01-30T12:56:00;103010.19;;;8.63;46.36
40612;BME280;26317;44.894;20.286;2024-01-30T12:58:35;102989.56;;;8.57;46.17
40612;BME280;26317;44.894;20.286;2024-01-30T13:01:19;103017.47;;;8.75;46.79
40612;BME280;26317;44.894;20.286;2024-01-30T13:03:58;103013.31;;;8.73;46.85
40612;BME280;26317;44.894;20.286;2024-01-30T13:06:46;103016.88;;;8.80;47.55
40612;BME280;26317;44.894;20.286;2024-01-30T13:09:21;103016.63;;;8.75;47.00
40612;BME280;26317;44.894;20.286;2024-01-30T13:12:09;103020.16;;;8.82;47.08
40612;BME280;26317;44.894;20.286;2024-01-30T13:14:50;103007.00;;;8.81;47.50
40612;BME280;26317;44.894;20.286;2024-01-30T13:17:30;102983.88;;;8.73;49.13
40612;BME280;26317;44.894;20.286;2024-01-30T13:20:10;103007.59;;;8.83;49.89
40612;BME280;26317;44.894;20.286;2024-01-30T13:22:52;103012.97;;;8.89;50.06
40612;BME280;26317;44.894;20.286;2024-01-30T13:25:34;103003.34;;;8.95;50.21
40612;BME280;26317;44.894;20.286;2024-01-30T13:28:14;103015.72;;;8.96;50.95
40612;BME280;26317;44.894;20.286;2024-01-30T13:30:50;103008.28;;;8.91;50.32
40612;BME280;26317;44.894;20.286;2024-01-30T13:33:26;103012.84;;;8.97;52.02
40612;BME280;26317;44.894;20.286;2024-01-30T13:36:00;103007.50;;;8.97;52.30
40612;BME280;26317;44.894;20.286;2024-01-30T13:38:44;102994.47;;;8.94;51.99
40612;BME280;26317;44.894;20.286;2024-01-30T13:41:22;102983.16;;;8.92;52.01
40612;BME280;26317;44.894;20.286;2024-01-30T13:43:57;103003.81;;;9.11;51.53
40612;BME280;26317;44.894;20.286;2024-01-30T13:46:41;102989.81;;;9.09;50.83
40612;BME280;26317;44.894;20.286;2024-01-30T13:49:15;102997.25;;;9.14;50.23
40612;BME280;26317;44.894;20.286;2024-01-30T13:51:51;102968.53;;;8.88;48.65
40612;BME280;26317;44.894;20.286;2024-01-30T13:54:35;103011.63;;;9.06;48.75
40612;BME280;26317;44.894;20.286;2024-01-30T13:57:10;102990.44;;;9.05;48.86
40612;BME280;26317;44.894;20.286;2024-01-30T13:59:46;102995.34;;;9.01;48.44
40612;BME280;26317;44.894;20.286;2024-01-30T14:02:22;102994.28;;;8.96;47.30
40612;BME280;26317;44.894;20.286;2024-01-30T14:05:00;102992.44;;;8.96;47.18
40612;BME280;26317;44.894;20.286;2024-01-30T14:07:54;102995.13;;;8.96;47.08
40612;BME280;26317;44.894;20.286;2024-01-30T14:10:28;102988.47;;;8.86;47.15